createdAt,value
2018-01-14T00:00:07.614Z,23.43
2018-01-14T00:02:35.055Z,27.00
2018-01-14T00:05:03.252Z,26.60
2018-01-14T00:07:30.687Z,24.40
2018-01-14T00:09:58.898Z,21.03
2018-01-14T00:12:26.324Z,18.77
2018-01-14T00:14:54.531Z,19.50
2018-01-14T00:17:21.951Z,20.27
2018-01-14T00:19:50.146Z,16.40
2018-01-14T00:22:17.571Z,22.00
2018-01-14T00:24:45.012Z,21.43
2018-01-14T00:27:12.439Z,20.30
2018-01-14T00:29:39.874Z,19.47
2018-01-14T00:32:07.297Z,20.30
2018-01-14T00:34:34.727Z,17.40
2018-01-14T00:37:02.146Z,16.60
2018-01-14T00:39:29.588Z,21.73
2018-01-14T00:41:57.790Z,18.13
2018-01-14T00:44:25.219Z,18.73
2018-01-14T00:46:53.419Z,15.07
2018-01-14T00:49:20.830Z,19.73
2018-01-14T00:51:48.258Z,20.50
2018-01-14T00:54:15.692Z,26.33
2018-01-14T00:56:43.126Z,18.70
2018-01-14T00:59:10.560Z,22.03
2018-01-14T01:01:37.987Z,17.67
2018-01-14T01:04:05.421Z,16.03
2018-01-14T01:06:32.850Z,20.23
2018-01-14T01:09:00.282Z,21.67
2018-01-14T01:11:27.715Z,14.87
2018-01-14T01:13:55.152Z,19.80
2018-01-14T01:16:22.587Z,20.00
2018-01-14T01:21:24.047Z,19.57
2018-01-14T01:23:51.470Z,18.43
2018-01-14T01:26:18.911Z,17.97
2018-01-14T01:28:46.348Z,20.63
2018-01-14T01:31:13.770Z,22.60
2018-01-14T01:33:41.973Z,16.90
2018-01-14T01:36:09.395Z,23.40
2018-01-14T01:38:37.603Z,19.03
2018-01-14T01:41:05.027Z,16.67
2018-01-14T01:43:33.230Z,22.73
2018-01-14T01:46:00.657Z,17.57
2018-01-14T01:48:28.868Z,19.17
2018-01-14T01:50:56.295Z,20.47
2018-01-14T01:53:23.730Z,16.47
2018-01-14T01:55:51.155Z,15.80
2018-01-14T01:58:18.593Z,18.83
2018-01-14T02:00:46.026Z,17.97
2018-01-14T02:03:13.454Z,17.07
2018-01-14T02:05:40.927Z,17.40
2018-01-14T02:08:09.115Z,21.90
2018-01-14T02:10:36.540Z,18.10
2018-01-14T02:13:03.976Z,25.13
2018-01-14T02:15:31.427Z,20.87
2018-01-14T02:17:58.866Z,18.47
2018-01-14T02:20:26.304Z,21.50
2018-01-14T02:22:53.733Z,21.77
2018-01-14T02:25:21.167Z,24.73
2018-01-14T02:27:48.600Z,22.50
2018-01-14T02:30:16.045Z,20.57
2018-01-14T02:32:43.473Z,17.63
2018-01-14T02:35:11.658Z,19.20
2018-01-14T02:37:39.099Z,23.47
2018-01-14T02:40:06.510Z,19.80
2018-01-14T02:42:33.947Z,19.70
2018-01-14T02:45:01.379Z,24.00
2018-01-14T02:47:29.585Z,18.37
2018-01-14T02:49:57.015Z,20.37
2018-01-14T02:52:25.202Z,21.00
2018-01-14T02:54:52.636Z,23.53
2018-01-14T02:57:20.828Z,26.40
2018-01-14T02:59:48.255Z,24.03
2018-01-14T03:02:15.687Z,22.17
2018-01-14T03:04:43.118Z,23.00
2018-01-14T03:07:10.555Z,22.53
2018-01-14T03:09:37.978Z,25.23
2018-01-14T03:12:05.402Z,24.13
2018-01-14T03:14:32.839Z,25.60
2018-01-14T03:17:00.271Z,21.30
2018-01-14T03:19:28.474Z,27.70
2018-01-14T03:21:55.898Z,27.50
2018-01-14T03:24:24.095Z,23.00
2018-01-14T03:26:51.524Z,24.00
2018-01-14T03:29:19.722Z,26.83
2018-01-14T03:31:47.154Z,24.63
2018-01-14T03:34:15.363Z,24.53
2018-01-14T03:36:42.794Z,23.67
2018-01-14T03:39:10.991Z,22.67
2018-01-14T03:41:38.411Z,22.67
2018-01-14T03:44:06.610Z,26.43
2018-01-14T03:46:34.037Z,25.73
2018-01-14T03:49:01.477Z,23.93
2018-01-14T03:51:28.903Z,26.60
2018-01-14T03:53:56.319Z,28.47
2018-01-14T03:56:24.518Z,26.97
2018-01-14T03:58:51.948Z,27.00
2018-01-14T04:01:20.142Z,28.13
2018-01-14T04:03:47.581Z,26.60
2018-01-14T04:06:15.779Z,32.80
2018-01-14T04:08:43.203Z,29.23
2018-01-14T04:11:10.651Z,23.30
2018-01-14T04:13:38.083Z,29.60
2018-01-14T04:16:05.518Z,25.73
2018-01-14T04:18:32.942Z,29.27
2018-01-14T04:21:01.154Z,25.10
2018-01-14T04:23:28.584Z,22.77
2018-01-14T04:25:56.015Z,23.37
2018-01-14T04:28:23.438Z,34.87
2018-01-14T04:30:50.881Z,33.70
2018-01-14T04:33:18.310Z,28.80
2018-01-14T04:35:46.509Z,29.70
2018-01-14T04:38:13.938Z,31.33
2018-01-14T04:40:42.130Z,24.87
2018-01-14T04:43:09.555Z,34.03
2018-01-14T04:45:37.167Z,29.33
2018-01-14T04:48:04.599Z,32.87
2018-01-14T04:50:32.035Z,25.00
2018-01-14T04:53:00.285Z,30.80
2018-01-14T04:55:27.659Z,34.87
2018-01-14T04:57:55.090Z,36.70
2018-01-14T05:00:22.524Z,32.10
2018-01-14T05:02:49.942Z,29.17
2018-01-14T05:05:18.138Z,30.17
2018-01-14T05:07:45.586Z,35.37
2018-01-14T05:10:13.011Z,33.17
2018-01-14T05:12:40.447Z,30.30
2018-01-14T05:15:07.886Z,33.43
2018-01-14T05:17:35.339Z,36.57
2018-01-14T05:20:02.753Z,29.33
2018-01-14T05:22:30.953Z,32.70
2018-01-14T05:24:58.383Z,31.50
2018-01-14T05:27:26.588Z,34.97
2018-01-14T05:29:54.022Z,39.10
2018-01-14T05:32:22.213Z,29.70
2018-01-14T05:34:49.656Z,29.77
2018-01-14T05:37:17.849Z,31.07
2018-01-14T05:39:45.291Z,31.30
2018-01-14T05:42:12.729Z,33.10
2018-01-14T05:44:40.156Z,35.63
2018-01-14T05:47:07.591Z,32.63
2018-01-14T05:49:35.022Z,33.07
2018-01-14T05:52:03.208Z,28.13
2018-01-14T05:54:30.635Z,33.80
2018-01-14T05:56:58.831Z,33.63
2018-01-14T05:59:26.266Z,32.90
2018-01-14T06:01:54.472Z,28.13
2018-01-14T06:04:21.897Z,32.40
2018-01-14T06:06:49.333Z,28.70
2018-01-14T06:09:16.763Z,27.07
2018-01-14T06:11:44.213Z,26.00
2018-01-14T06:14:11.639Z,36.03
2018-01-14T06:16:39.839Z,31.47
2018-01-14T06:19:07.275Z,34.03
2018-01-14T06:21:35.479Z,40.40
2018-01-14T06:24:02.899Z,29.63
2018-01-14T06:26:31.101Z,36.37
2018-01-14T06:28:58.531Z,30.43
2018-01-14T06:31:26.739Z,29.47
2018-01-14T06:33:54.159Z,27.73
2018-01-14T06:36:22.360Z,28.23
2018-01-14T06:38:49.786Z,32.63
2018-01-14T06:41:17.987Z,25.83
2018-01-14T06:43:45.410Z,29.43
2018-01-14T06:46:13.617Z,34.97
2018-01-14T06:48:41.036Z,32.13
2018-01-14T06:51:08.460Z,31.50
2018-01-14T06:53:35.898Z,29.80
2018-01-14T06:56:03.315Z,26.63
2018-01-14T06:58:31.522Z,40.27
2018-01-14T07:00:58.950Z,25.20
2018-01-14T07:03:27.210Z,29.77
2018-01-14T07:05:54.640Z,34.73
2018-01-14T07:08:22.136Z,29.60
2018-01-14T07:10:50.407Z,26.57
2018-01-14T07:13:17.843Z,30.87
2018-01-14T07:15:45.287Z,26.80
2018-01-14T07:18:12.729Z,28.80
2018-01-14T07:20:40.235Z,32.97
2018-01-14T07:23:07.678Z,24.70
2018-01-14T07:25:35.106Z,26.37
2018-01-14T07:28:02.534Z,26.53
2018-01-14T07:30:29.976Z,26.53
2018-01-14T07:32:57.390Z,28.70
2018-01-14T07:35:24.830Z,28.10
2018-01-14T07:37:52.263Z,30.70
2018-01-14T07:40:19.702Z,30.30
2018-01-14T07:42:47.906Z,22.30
2018-01-14T07:45:15.432Z,35.13
2018-01-14T07:47:43.623Z,28.67
2018-01-14T07:50:11.055Z,25.90
2018-01-14T07:52:38.493Z,27.80
2018-01-14T07:55:05.928Z,26.00
2018-01-14T07:57:33.378Z,30.17
2018-01-14T08:00:00.824Z,23.67
2018-01-14T08:02:28.256Z,26.60
2018-01-14T08:04:56.462Z,26.90
2018-01-14T08:07:23.895Z,26.20
2018-01-14T08:09:52.095Z,28.27
2018-01-14T08:12:19.608Z,27.10
2018-01-14T08:14:47.033Z,19.03
2018-01-14T08:17:14.459Z,24.27
2018-01-14T08:19:41.899Z,24.40
2018-01-14T08:22:10.103Z,23.87
2018-01-14T08:24:37.534Z,24.90
2018-01-14T08:27:04.968Z,28.57
2018-01-14T08:29:33.158Z,27.53
2018-01-14T08:32:01.351Z,20.97
2018-01-14T08:34:28.779Z,24.63
2018-01-14T08:36:56.983Z,27.60
2018-01-14T08:39:24.406Z,25.80
2018-01-14T08:41:51.838Z,29.60
2018-01-14T08:44:19.271Z,27.77
2018-01-14T08:46:46.702Z,34.47
2018-01-14T08:49:14.128Z,28.23
2018-01-14T08:51:41.569Z,27.43
2018-01-14T08:54:08.999Z,27.47
2018-01-14T08:56:36.428Z,28.40
2018-01-14T08:59:03.864Z,28.63
2018-01-14T09:01:37.667Z,24.43
2018-01-14T09:04:05.128Z,24.43
2018-01-14T09:06:33.325Z,28.47
2018-01-14T09:09:00.764Z,32.33
2018-01-14T09:11:28.959Z,26.00
2018-01-14T09:13:56.408Z,24.37
2018-01-14T09:16:24.604Z,25.47
2018-01-14T09:18:52.056Z,19.77
2018-01-14T09:21:19.474Z,23.90
2018-01-14T09:23:46.911Z,25.87
2018-01-14T09:26:14.356Z,20.73
2018-01-14T09:28:41.852Z,23.57
2018-01-14T09:31:09.353Z,21.00
2018-01-14T09:33:36.768Z,23.40
2018-01-14T09:36:05.091Z,25.93
2018-01-14T09:38:32.612Z,18.93
2018-01-14T09:41:00.056Z,21.23
2018-01-14T09:43:27.524Z,20.23
2018-01-14T09:45:55.840Z,20.30
2018-01-14T09:48:23.274Z,18.77
2018-01-14T09:50:50.731Z,21.30
2018-01-14T09:53:18.171Z,21.57
2018-01-14T09:55:46.359Z,21.90
2018-01-14T09:58:13.798Z,22.37
2018-01-14T10:00:41.223Z,19.80
2018-01-14T10:03:08.676Z,21.60
2018-01-14T10:05:36.108Z,22.47
2018-01-14T10:08:03.529Z,19.87
2018-01-14T10:10:31.715Z,27.07
2018-01-14T10:12:59.923Z,23.33
2018-01-14T10:15:27.391Z,22.00
2018-01-14T10:17:54.799Z,21.60
2018-01-14T10:20:22.987Z,18.13
2018-01-14T10:22:50.442Z,17.73
2018-01-14T10:25:17.968Z,18.83
2018-01-14T10:27:45.382Z,22.07
2018-01-14T10:30:12.820Z,22.37
2018-01-14T10:32:40.313Z,17.20
2018-01-14T10:35:07.720Z,18.90
2018-01-14T10:37:35.919Z,20.83
2018-01-14T10:40:03.498Z,19.17
2018-01-14T10:42:30.995Z,16.90
2018-01-14T10:44:58.424Z,19.60
2018-01-14T10:47:25.992Z,20.60
2018-01-14T10:49:53.467Z,17.07
2018-01-14T10:52:20.916Z,16.47
2018-01-14T10:54:48.347Z,21.83
2018-01-14T10:57:15.789Z,19.43
2018-01-14T10:59:43.299Z,14.77
2018-01-14T11:02:10.731Z,14.93
2018-01-14T11:04:38.179Z,16.20
2018-01-14T11:07:05.630Z,19.17
2018-01-14T11:09:33.056Z,15.60
2018-01-14T11:12:00.483Z,16.70
2018-01-14T11:14:27.945Z,20.07
2018-01-14T11:16:55.371Z,18.13
2018-01-14T11:19:22.831Z,21.80
2018-01-14T11:21:50.246Z,19.53
2018-01-14T11:24:17.703Z,19.37
2018-01-14T11:26:45.874Z,16.20
2018-01-14T11:29:25.277Z,15.90
2018-01-14T11:31:52.690Z,22.97
2018-01-14T11:34:20.141Z,18.30
2018-01-14T11:36:47.636Z,16.83
2018-01-14T11:39:15.104Z,16.40
2018-01-14T11:41:42.568Z,17.73
2018-01-14T11:44:10.759Z,18.30
2018-01-14T11:46:38.963Z,21.83
2018-01-14T11:49:06.383Z,17.40
2018-01-14T11:51:34.584Z,17.57
2018-01-14T11:54:02.013Z,20.70
2018-01-14T11:56:30.278Z,18.13
2018-01-14T11:58:57.699Z,12.77
2018-01-14T12:01:25.128Z,18.00
2018-01-14T12:03:52.556Z,17.07
2018-01-14T12:06:20.755Z,16.30
2018-01-14T12:08:48.192Z,21.10
2018-01-14T12:11:15.620Z,12.43
2018-01-14T12:13:43.056Z,16.77
2018-01-14T12:16:10.557Z,20.20
2018-01-14T12:18:37.991Z,20.80
2018-01-14T12:21:05.414Z,17.13
2018-01-14T12:23:32.843Z,15.17
2018-01-14T12:26:01.047Z,13.90
2018-01-14T12:28:28.518Z,15.43
2018-01-14T12:30:55.974Z,13.70
2018-01-14T12:33:33.283Z,17.70
2018-01-14T12:36:00.754Z,17.00
2018-01-14T12:38:28.188Z,18.20
2018-01-14T12:40:55.620Z,14.97
2018-01-14T12:43:23.047Z,18.40
2018-01-14T12:45:51.232Z,14.87
2018-01-14T12:48:18.654Z,19.50
2018-01-14T12:50:46.085Z,17.17
2018-01-14T12:53:13.517Z,15.63
2018-01-14T12:55:40.940Z,19.27
2018-01-14T12:58:09.138Z,15.80
2018-01-14T13:00:36.554Z,17.07
2018-01-14T13:03:03.990Z,17.50
2018-01-14T13:05:31.471Z,18.00
2018-01-14T13:07:58.919Z,13.97
2018-01-14T13:10:26.351Z,13.40
2018-01-14T13:12:53.773Z,15.30
2018-01-14T13:15:21.199Z,12.30
2018-01-14T13:17:48.615Z,13.63
2018-01-14T13:20:16.043Z,16.43
2018-01-14T13:22:43.467Z,16.67
2018-01-14T13:25:10.900Z,15.70
2018-01-14T13:27:38.323Z,14.53
2018-01-14T13:30:05.750Z,14.27
2018-01-14T13:32:33.947Z,18.47
2018-01-14T13:35:01.377Z,13.27
2018-01-14T13:37:28.792Z,9.73
2018-01-14T13:39:56.287Z,11.73
2018-01-14T13:42:23.710Z,15.33
2018-01-14T13:44:51.152Z,12.07
2018-01-14T13:47:18.563Z,8.70
2018-01-14T13:49:46.764Z,12.63
2018-01-14T13:52:14.183Z,11.27
2018-01-14T13:54:41.615Z,12.93
2018-01-14T13:57:09.052Z,12.83
2018-01-14T13:59:36.487Z,16.13
2018-01-14T14:02:03.911Z,14.80
2018-01-14T14:04:31.354Z,12.73
2018-01-14T14:06:59.541Z,13.13
2018-01-14T14:09:26.982Z,12.73
2018-01-14T14:11:54.398Z,13.90
2018-01-14T14:14:21.832Z,15.40
2018-01-14T14:16:50.023Z,15.10
2018-01-14T14:19:17.455Z,15.23
2018-01-14T14:21:45.652Z,13.97
2018-01-14T14:24:13.077Z,11.50
2018-01-14T14:26:40.495Z,14.97
2018-01-14T14:29:07.927Z,13.20
2018-01-14T14:31:35.351Z,11.90
2018-01-14T14:34:02.821Z,12.33
2018-01-14T14:36:31.008Z,12.60
2018-01-14T14:38:58.439Z,17.27
2018-01-14T14:41:25.890Z,16.37
2018-01-14T14:43:53.331Z,12.10
2018-01-14T14:46:20.750Z,16.60
2018-01-14T14:48:48.188Z,11.07
2018-01-14T14:51:16.377Z,17.03
2018-01-14T14:53:43.803Z,13.10
2018-01-14T14:56:11.995Z,15.57
2018-01-14T14:58:40.213Z,16.60
2018-01-14T15:01:07.610Z,11.77
2018-01-14T15:03:35.811Z,13.77
2018-01-14T15:06:03.246Z,11.77
2018-01-14T15:08:31.438Z,14.27
2018-01-14T15:10:58.863Z,16.23
2018-01-14T15:13:26.282Z,12.60
2018-01-14T15:15:53.718Z,18.77
2018-01-14T15:18:21.136Z,13.97
2018-01-14T15:20:48.558Z,16.17
2018-01-14T15:23:15.983Z,18.90
2018-01-14T15:25:43.419Z,15.53
2018-01-14T15:28:11.614Z,11.53
2018-01-14T15:30:39.043Z,18.13
2018-01-14T15:33:07.235Z,19.50
2018-01-14T15:35:34.666Z,18.23
2018-01-14T15:38:02.082Z,15.00
2018-01-14T15:40:29.524Z,16.90
2018-01-14T15:42:56.946Z,19.00
2018-01-14T15:45:25.144Z,12.90
2018-01-14T15:47:52.565Z,12.30
2018-01-14T15:50:20.002Z,16.47
2018-01-14T15:52:47.413Z,13.40
2018-01-14T15:55:14.858Z,14.57
2018-01-14T15:57:43.034Z,13.13
2018-01-14T16:00:11.286Z,18.17
2018-01-14T16:02:38.718Z,14.33
2018-01-14T16:05:06.924Z,14.90
2018-01-14T16:07:34.342Z,14.30
2018-01-14T16:10:01.775Z,14.50
2018-01-14T16:12:29.199Z,17.50
2018-01-14T16:14:57.400Z,14.30
2018-01-14T16:17:24.829Z,19.73
2018-01-14T16:19:52.257Z,14.90
2018-01-14T16:22:19.675Z,18.17
2018-01-14T16:24:47.106Z,15.90
2018-01-14T16:27:15.315Z,15.73
2018-01-14T16:29:42.772Z,13.03
2018-01-14T16:32:10.205Z,15.63
2018-01-14T16:34:38.409Z,15.60
2018-01-14T16:37:05.834Z,19.70
2018-01-14T16:39:34.018Z,18.40
2018-01-14T16:42:01.443Z,14.80
2018-01-14T16:44:28.872Z,17.07
2018-01-14T16:46:56.292Z,14.30
2018-01-14T16:49:23.724Z,13.97
2018-01-14T16:51:51.138Z,19.03
2018-01-14T16:54:18.565Z,13.30
2018-01-14T16:56:46.042Z,15.83
2018-01-14T16:59:13.475Z,12.77
2018-01-14T17:01:40.913Z,17.50
2018-01-14T17:04:09.114Z,11.40
2018-01-14T17:06:36.543Z,20.57
2018-01-14T17:09:04.743Z,21.70
2018-01-14T17:11:32.175Z,23.80
2018-01-14T17:14:00.417Z,15.90
2018-01-14T17:16:28.554Z,14.07
2018-01-14T17:18:55.979Z,12.33
2018-01-14T17:21:24.184Z,16.03
2018-01-14T17:23:51.606Z,17.57
2018-01-14T17:26:19.032Z,19.23
2018-01-14T17:28:46.454Z,11.87
2018-01-14T17:31:13.888Z,14.83
2018-01-14T17:33:42.074Z,11.13
2018-01-14T17:36:09.518Z,11.67
2018-01-14T17:38:37.706Z,11.57
2018-01-14T17:41:05.143Z,12.07
2018-01-14T17:43:33.345Z,14.10
2018-01-14T17:46:00.775Z,17.53
2018-01-14T17:48:28.967Z,12.90
2018-01-14T17:50:56.415Z,20.37
2018-01-14T17:53:24.604Z,16.80
2018-01-14T17:55:52.041Z,10.03
2018-01-14T17:58:20.231Z,16.10
2018-01-14T18:00:47.679Z,21.47
2018-01-14T18:03:15.862Z,12.03
2018-01-14T18:05:43.295Z,13.70
2018-01-14T18:08:11.500Z,12.97
2018-01-14T18:10:38.983Z,15.70
2018-01-14T18:13:06.426Z,15.23
2018-01-14T18:15:33.863Z,20.07
2018-01-14T18:18:01.299Z,19.37
2018-01-14T18:20:29.554Z,15.00
2018-01-14T18:22:56.923Z,12.83
2018-01-14T18:25:24.371Z,25.33
2018-01-14T18:27:51.804Z,25.20
2018-01-14T18:30:19.244Z,17.30
2018-01-14T18:32:46.668Z,12.73
2018-01-14T18:35:14.891Z,29.47
2018-01-14T18:37:42.307Z,36.20
2018-01-14T18:40:10.558Z,40.30
2018-01-14T18:42:38.014Z,23.70
2018-01-14T18:45:05.456Z,49.87
2018-01-14T18:47:46.737Z,42.17
2018-01-14T18:50:14.164Z,20.60
2018-01-14T18:52:41.595Z,14.80
2018-01-14T18:55:09.031Z,21.10
2018-01-14T18:57:37.272Z,11.83
2018-01-14T19:00:04.696Z,12.13
2018-01-14T19:02:32.134Z,16.07
2018-01-14T19:05:00.315Z,14.47
2018-01-14T19:07:27.735Z,16.20
2018-01-14T19:09:55.165Z,14.10
2018-01-14T19:12:22.639Z,16.13
2018-01-14T19:14:50.079Z,19.50
2018-01-14T19:17:17.543Z,22.93
2018-01-14T19:19:45.039Z,16.13
2018-01-14T19:22:13.232Z,13.77
2018-01-14T19:24:40.710Z,16.63
2018-01-14T19:27:08.143Z,18.90
2018-01-14T19:29:36.342Z,22.73
2018-01-14T19:32:03.867Z,25.53
2018-01-14T19:34:32.105Z,20.00
2018-01-14T19:37:00.311Z,16.43
2018-01-14T19:39:28.500Z,12.67
2018-01-14T19:41:56.705Z,18.90
2018-01-14T19:44:24.216Z,21.33
2018-01-14T19:46:51.646Z,15.10
2018-01-14T19:49:19.093Z,21.40
2018-01-14T19:51:46.536Z,21.80
2018-01-14T19:54:14.054Z,23.07
2018-01-14T19:56:42.280Z,20.67
2018-01-14T19:59:09.727Z,17.23
2018-01-14T20:01:37.296Z,16.37
2018-01-14T20:04:04.815Z,15.50
2018-01-14T20:06:33.048Z,15.17
2018-01-14T20:09:00.458Z,19.33
2018-01-14T20:11:27.891Z,11.87
2018-01-14T20:13:56.184Z,10.90
2018-01-14T20:16:23.614Z,12.60
2018-01-14T20:18:51.207Z,18.70
2018-01-14T20:21:19.576Z,14.27
2018-01-14T20:23:47.019Z,16.20
2018-01-14T20:26:15.290Z,17.27
2018-01-14T20:28:42.731Z,16.50
2018-01-14T20:31:10.159Z,16.60
2018-01-14T20:33:37.611Z,18.07
2018-01-14T20:36:05.088Z,23.70
2018-01-14T20:38:34.113Z,19.00
2018-01-14T20:41:01.530Z,21.73
2018-01-14T20:43:29.041Z,19.40
2018-01-14T20:45:56.471Z,17.03
2018-01-14T20:48:23.899Z,21.20
2018-01-14T20:50:51.380Z,16.90
2018-01-14T20:53:18.801Z,15.90
2018-01-14T20:55:46.257Z,23.20
2018-01-14T20:58:13.680Z,20.40
2018-01-14T21:00:41.884Z,18.47
2018-01-14T21:03:09.330Z,16.33
2018-01-14T21:05:36.768Z,18.30
2018-01-14T21:08:04.968Z,19.30
2018-01-14T21:10:32.409Z,15.70
2018-01-14T21:13:00.602Z,16.73
2018-01-14T21:15:28.067Z,20.83
2018-01-14T21:17:55.486Z,17.50
2018-01-14T21:20:23.733Z,20.33
2018-01-14T21:22:51.214Z,17.10
2018-01-14T21:25:19.577Z,23.37
2018-01-14T21:27:46.973Z,22.47
2018-01-14T21:30:14.415Z,21.80
2018-01-14T21:32:42.615Z,16.50
2018-01-14T21:35:10.039Z,22.17
2018-01-14T21:37:38.243Z,15.03
2018-01-14T21:40:05.679Z,16.13
2018-01-14T21:42:33.892Z,18.13
2018-01-14T21:45:02.636Z,16.93
2018-01-14T21:47:30.834Z,15.57
2018-01-14T21:49:58.271Z,15.10
2018-01-14T21:52:25.690Z,13.33
2018-01-14T21:54:53.303Z,17.17
2018-01-14T21:57:20.781Z,18.43
2018-01-14T21:59:48.464Z,12.70
2018-01-14T22:02:16.670Z,13.47
2018-01-14T22:04:44.871Z,16.17
2018-01-14T22:07:12.302Z,19.73
2018-01-14T22:09:39.767Z,18.13
2018-01-14T22:12:08.000Z,17.93
2018-01-14T22:14:35.386Z,24.67
2018-01-14T22:17:02.856Z,15.53
2018-01-14T22:19:31.042Z,18.10
2018-01-14T22:21:59.249Z,18.53
2018-01-14T22:24:26.686Z,20.63
2018-01-14T22:26:54.127Z,19.70
2018-01-14T22:29:22.332Z,18.13
2018-01-14T22:31:49.750Z,15.47
2018-01-14T22:34:17.955Z,15.50
2018-01-14T22:36:45.384Z,18.83
2018-01-14T22:39:13.580Z,17.40
2018-01-14T22:41:41.015Z,18.90
2018-01-14T22:44:09.219Z,19.53
2018-01-14T22:46:36.651Z,18.03
2018-01-14T22:49:04.851Z,15.10
2018-01-14T22:51:32.291Z,20.53
2018-01-14T22:54:00.531Z,18.27
2018-01-14T22:56:27.964Z,18.93
2018-01-14T22:58:55.390Z,16.40
2018-01-14T23:01:24.595Z,25.20
2018-01-14T23:03:52.872Z,23.57
2018-01-14T23:06:20.338Z,17.00
2018-01-14T23:08:47.752Z,16.93
2018-01-14T23:11:15.178Z,17.87
2018-01-14T23:13:42.655Z,16.37
2018-01-14T23:16:10.115Z,16.80
2018-01-14T23:18:37.535Z,16.23
2018-01-14T23:21:04.984Z,22.07
2018-01-14T23:23:32.399Z,18.93
2018-01-14T23:26:00.603Z,18.33
2018-01-14T23:28:28.232Z,14.03
2018-01-14T23:30:56.498Z,19.47
2018-01-14T23:33:24.038Z,16.93
2018-01-14T23:35:51.476Z,19.57
2018-01-14T23:38:18.904Z,19.07
2018-01-14T23:40:46.330Z,18.30
2018-01-14T23:43:13.767Z,16.90
2018-01-14T23:45:41.191Z,14.57
2018-01-14T23:48:08.621Z,17.03
2018-01-14T23:50:36.098Z,21.93
2018-01-14T23:53:03.522Z,15.40
2018-01-14T23:55:31.754Z,18.20
2018-01-14T23:57:59.199Z,16.67
